Time;durP1;ratioP1;P1;durP2;ratioP2;P2;SDS_P1;SDS_P2;PMS_P1;PMS_P2;Temp;Humidity;BMP_temperature;BMP_pressure;BME280_temperature;BME280_humidity;BME280_pressure;Samples;Min_cycle;Max_cycle;Signal;HPM_P1;HPM_P2
2023/12/23 00:02:10;;;;;;;6.28;1.40;;;22.00;73.30;;;;;;5015603;28;20018;-78
2023/12/23 00:04:38;;;;;;;4.60;1.02;;;22.10;73.50;;;;;;5013380;28;20022;-77
2023/12/23 00:07:05;;;;;;;5.40;1.85;;;22.10;73.40;;;;;;5025656;28;20053;-77
2023/12/23 00:09:33;;;;;;;5.88;1.00;;;22.20;73.40;;;;;;5011620;28;20581;-82
2023/12/23 00:12:00;;;;;;;3.75;1.08;;;22.30;73.60;;;;;;5016254;28;20071;-78
2023/12/23 00:14:27;;;;;;;3.15;1.10;;;22.30;72.90;;;;;;5029030;28;20084;-79
2023/12/23 00:16:55;;;;;;;6.30;1.30;;;22.30;72.80;;;;;;5024383;28;20025;-78
2023/12/23 00:19:24;;;;;;;3.30;1.27;;;22.30;73.00;;;;;;5016864;28;20121;-89
2023/12/23 00:21:51;;;;;;;4.10;0.90;;;22.30;72.70;;;;;;5013778;28;20123;-83
2023/12/23 00:24:26;;;;;;;3.88;0.95;;;22.30;72.90;;;;;;5013225;28;20373;-77
2023/12/23 00:26:57;;;;;;;3.33;1.00;;;22.40;72.80;;;;;;5025258;28;20362;-77
2023/12/23 00:29:25;;;;;;;2.35;1.02;;;22.50;72.10;;;;;;5013580;28;20766;-77
2023/12/23 00:31:54;;;;;;;3.17;0.90;;;22.60;72.10;;;;;;5016120;28;20032;-77
2023/12/23 00:34:22;;;;;;;3.58;0.98;;;22.50;72.00;;;;;;5008354;28;20030;-89
2023/12/23 00:36:56;;;;;;;2.97;0.90;;;22.60;72.00;;;;;;5012536;28;20499;-77
2023/12/23 00:39:23;;;;;;;2.30;0.75;;;22.50;72.00;;;;;;5012080;28;20042;-78
2023/12/23 00:41:51;;;;;;;4.05;1.02;;;22.60;71.60;;;;;;5028156;28;20117;-89
2023/12/23 00:44:26;;;;;;;4.07;0.93;;;22.60;71.80;;;;;;5012916;28;20053;-87
2023/12/23 00:46:54;;;;;;;3.17;1.00;;;22.60;71.30;;;;;;5012830;28;20113;-91
2023/12/23 00:49:21;;;;;;;2.47;0.80;;;22.50;71.50;;;;;;5013105;28;20445;-88
2023/12/23 00:51:49;;;;;;;1.63;0.82;;;22.60;71.60;;;;;;5013626;28;20053;-77
2023/12/23 00:54:17;;;;;;;4.07;1.05;;;22.60;71.10;;;;;;5013799;28;20076;-77
2023/12/23 00:56:44;;;;;;;4.47;0.93;;;22.80;70.90;;;;;;5010386;28;20049;-77
2023/12/23 00:59:12;;;;;;;8.35;1.25;;;22.80;70.70;;;;;;5017393;28;20091;-78
2023/12/23 01:01:43;;;;;;;7.38;2.20;;;22.90;70.70;;;;;;5028209;28;20455;-77
2023/12/23 01:04:10;;;;;;;3.00;0.98;;;22.90;69.70;;;;;;5009023;28;20543;-78
2023/12/23 01:06:38;;;;;;;4.97;1.05;;;22.80;69.60;;;;;;5019895;28;20069;-82
2023/12/23 01:09:05;;;;;;;2.92;1.10;;;22.80;69.70;;;;;;5020340;28;20038;-85
2023/12/23 01:11:34;;;;;;;3.00;0.82;;;22.80;69.80;;;;;;5013642;28;20018;-84
2023/12/23 01:14:02;;;;;;;1.85;0.80;;;22.80;70.10;;;;;;5008267;28;20807;-91
2023/12/23 01:16:39;;;;;;;2.50;0.82;;;22.80;70.10;;;;;;5010705;28;20074;-77
2023/12/23 01:19:08;;;;;;;7.82;0.88;;;23.00;69.70;;;;;;5020173;28;20435;-90
2023/12/23 01:21:35;;;;;;;5.45;1.10;;;23.10;68.60;;;;;;5015037;28;20045;-90
2023/12/23 01:24:05;;;;;;;5.10;1.10;;;23.20;68.60;;;;;;5028670;28;20022;-84
2023/12/23 01:26:32;;;;;;;5.53;0.98;;;23.30;67.90;;;;;;5018731;28;20026;-77
2023/12/23 01:29:03;;;;;;;2.70;0.80;;;23.30;67.90;;;;;;5016626;28;20100;-77
2023/12/23 01:31:31;;;;;;;3.75;0.75;;;23.40;67.00;;;;;;5023010;28;20033;-83
2023/12/23 01:34:00;;;;;;;2.60;0.80;;;23.50;67.50;;;;;;5006439;28;20108;-86
2023/12/23 01:36:27;;;;;;;1.70;0.73;;;23.50;67.60;;;;;;5009242;28;20034;-92
2023/12/23 01:38:55;;;;;;;4.72;0.80;;;23.70;67.60;;;;;;5012980;28;20018;-90
2023/12/23 01:41:23;;;;;;;6.18;1.10;;;23.70;66.70;;;;;;5012984;28;20053;-92
2023/12/23 01:43:50;;;;;;;1.30;0.82;;;23.70;66.60;;;;;;5035692;28;20056;-90
2023/12/23 01:46:18;;;;;;;2.20;0.85;;;23.70;65.70;;;;;;5018826;28;20125;-84
2023/12/23 01:48:47;;;;;;;3.67;1.00;;;23.70;65.30;;;;;;5003312;28;20058;-84
2023/12/23 01:51:15;;;;;;;2.30;0.73;;;23.70;65.20;;;;;;5024872;28;20080;-85
2023/12/23 01:53:43;;;;;;;2.67;0.90;;;23.70;65.60;;;;;;5016610;28;20057;-89
2023/12/23 01:56:10;;;;;;;2.33;0.90;;;23.80;65.30;;;;;;5017202;28;20017;-92
2023/12/23 01:58:39;;;;;;;4.82;1.13;;;23.80;64.00;;;;;;5015284;28;20033;-85
2023/12/23 02:01:07;;;;;;;5.68;0.95;;;23.80;64.30;;;;;;5012714;28;20042;-90
2023/12/23 02:03:34;;;;;;;2.67;0.70;;;23.80;63.60;;;;;;5015340;28;20030;-90
2023/12/23 02:06:03;;;;;;;4.30;0.90;;;23.70;63.90;;;;;;5017972;28;20431;-87
2023/12/23 02:08:30;;;;;;;3.40;0.70;;;23.80;64.70;;;;;;5020488;28;20064;-81
2023/12/23 02:11:07;;;;;;;4.97;1.05;;;23.80;64.70;;;;;;5025589;28;20125;-88
2023/12/23 02:13:47;;;;;;;3.35;0.98;;;23.90;63.90;;;;;;5017819;28;20037;-90
2023/12/23 02:16:15;;;;;;;2.63;0.90;;;23.90;62.90;;;;;;5015049;28;20052;-89
2023/12/23 02:18:45;;;;;;;1.50;0.40;;;23.90;63.30;;;;;;5015435;28;20026;-90
2023/12/23 02:21:12;;;;;;;4.53;1.08;;;23.80;63.50;;;;;;5005110;28;20421;-90
2023/12/23 02:23:39;;;;;;;2.25;0.77;;;23.90;62.90;;;;;;5015947;28;20026;-89
2023/12/23 02:26:12;;;;;;;3.85;0.80;;;24.00;63.30;;;;;;5021518;28;20075;-89
2023/12/23 02:28:41;;;;;;;2.85;0.90;;;24.10;63.40;;;;;;5015739;28;20026;-77
2023/12/23 02:31:10;;;;;;;2.90;0.70;;;24.20;63.10;;;;;;5015369;28;20018;-89
2023/12/23 02:33:38;;;;;;;3.08;0.90;;;24.20;62.70;;;;;;5015246;28;20499;-88
2023/12/23 02:36:07;;;;;;;4.95;1.00;;;24.30;62.60;;;;;;5015338;28;20473;-86
2023/12/23 02:38:34;;;;;;;2.45;0.98;;;24.40;62.60;;;;;;5015411;28;20062;-77
2023/12/23 02:41:03;;;;;;;3.85;1.20;;;24.50;62.70;;;;;;5015730;28;20097;-92
2023/12/23 02:43:30;;;;;;;3.53;0.98;;;24.60;61.80;;;;;;5014987;28;20054;-90
2023/12/23 02:45:58;;;;;;;3.05;1.02;;;24.70;62.00;;;;;;5015449;28;20033;-93
2023/12/23 02:48:26;;;;;;;2.67;1.00;;;24.70;62.00;;;;;;5016564;28;20022;-81
2023/12/23 02:50:55;;;;;;;5.32;1.10;;;24.70;61.50;;;;;;5017556;28;20028;-92
2023/12/23 02:53:24;;;;;;;3.70;1.30;;;24.70;61.70;;;;;;5012922;28;20107;-93
2023/12/23 02:55:52;;;;;;;5.30;1.20;;;24.80;61.60;;;;;;5016012;28;20692;-91
2023/12/23 02:58:19;;;;;;;3.30;1.15;;;24.80;61.70;;;;;;5022815;28;20465;-86
2023/12/23 03:00:48;;;;;;;2.90;1.00;;;24.80;61.10;;;;;;5016115;28;20038;-90
2023/12/23 03:03:15;;;;;;;2.58;0.80;;;24.90;61.40;;;;;;5014732;28;20061;-88
2023/12/23 03:05:42;;;;;;;4.05;1.00;;;24.90;60.60;;;;;;5015235;28;20042;-90
2023/12/23 03:08:10;;;;;;;4.28;0.98;;;24.90;60.40;;;;;;5015578;28;20026;-91
2023/12/23 03:10:37;;;;;;;6.35;1.00;;;24.90;60.40;;;;;;5015667;28;20018;-86
2023/12/23 03:13:07;;;;;;;2.72;0.82;;;24.90;60.20;;;;;;5016125;28;20026;-86
2023/12/23 03:15:34;;;;;;;2.20;0.70;;;24.90;59.90;;;;;;5015835;28;20017;-91
2023/12/23 03:18:04;;;;;;;3.67;1.00;;;25.00;60.20;;;;;;5015765;28;20053;-85
2023/12/23 03:20:31;;;;;;;3.58;1.10;;;25.00;60.70;;;;;;5015668;28;20030;-90
2023/12/23 03:22:59;;;;;;;2.60;0.90;;;25.10;60.80;;;;;;5015916;28;20030;-91
2023/12/23 03:25:26;;;;;;;5.93;1.10;;;25.10;60.70;;;;;;5018999;28;20029;-92
2023/12/23 03:27:54;;;;;;;4.40;1.08;;;25.20;61.00;;;;;;5005517;28;20018;-86
2023/12/23 03:30:21;;;;;;;2.80;0.80;;;25.20;61.20;;;;;;5015864;28;20354;-89
2023/12/23 03:32:49;;;;;;;5.53;0.88;;;25.20;61.60;;;;;;5014974;28;20022;-89
2023/12/23 03:35:16;;;;;;;4.47;1.00;;;25.20;61.10;;;;;;5030146;28;20030;-92
2023/12/23 03:37:52;;;;;;;4.07;1.10;;;25.20;61.50;;;;;;5015141;28;20018;-89
2023/12/23 03:40:25;;;;;;;;;;;25.30;61.90;;;;;;5015519;28;20033;-91
2023/12/23 03:42:54;;;;;;;2.40;0.80;;;25.30;62.00;;;;;;5014137;28;19953;-77
2023/12/23 03:45:21;;;;;;;3.33;1.00;;;25.30;61.30;;;;;;5015123;28;20025;-91
2023/12/23 03:47:50;;;;;;;3.28;1.00;;;25.30;61.40;;;;;;5014618;28;20105;-81
2023/12/23 03:50:17;;;;;;;2.80;0.70;;;25.30;61.70;;;;;;5015110;28;20026;-90
2023/12/23 03:52:52;;;;;;;4.70;1.10;;;25.30;61.80;;;;;;5014949;28;20030;-90
2023/12/23 03:55:20;;;;;;;5.22;1.17;;;25.30;61.40;;;;;;5003389;28;20026;-93
2023/12/23 03:57:47;;;;;;;4.80;1.42;;;25.30;61.30;;;;;;5013823;28;20078;-88
2023/12/23 04:00:16;;;;;;;5.97;1.70;;;25.40;61.20;;;;;;5013859;28;20107;-87
2023/12/23 04:02:44;;;;;;;4.25;1.25;;;25.40;60.80;;;;;;5016317;28;20391;-90
2023/12/23 04:05:12;;;;;;;4.13;1.95;;;25.40;60.40;;;;;;5012852;28;20085;-81
2023/12/23 04:07:39;;;;;;;3.72;1.33;;;25.30;59.70;;;;;;5005911;28;20118;-80
2023/12/23 04:10:07;;;;;;;2.25;0.90;;;25.30;60.10;;;;;;5018658;28;20026;-82
2023/12/23 04:12:34;;;;;;;5.10;0.88;;;25.30;59.30;;;;;;5022752;28;20068;-81
2023/12/23 04:15:05;;;;;;;2.67;1.10;;;25.30;58.80;;;;;;5010064;28;20436;-87
2023/12/23 04:17:32;;;;;;;1.20;0.60;;;25.30;59.00;;;;;;5007575;28;20029;-86
2023/12/23 04:20:00;;;;;;;4.18;1.00;;;25.30;58.90;;;;;;5017707;28;20477;-80
2023/12/23 04:22:27;;;;;;;3.10;0.90;;;25.30;59.60;;;;;;5016316;28;20026;-88
2023/12/23 04:24:55;;;;;;;2.33;0.80;;;25.40;59.70;;;;;;5013728;28;20031;-87
2023/12/23 04:27:22;;;;;;;3.60;1.13;;;25.40;59.90;;;;;;5010175;28;20014;-82
2023/12/23 04:29:50;;;;;;;2.95;1.00;;;25.40;58.90;;;;;;5008102;28;20029;-81
2023/12/23 04:32:18;;;;;;;2.83;1.05;;;25.40;58.40;;;;;;5013766;28;20025;-83
2023/12/23 04:34:45;;;;;;;1.73;0.73;;;25.40;58.20;;;;;;5012608;28;20531;-86
2023/12/23 04:37:13;;;;;;;4.05;1.90;;;25.30;58.30;;;;;;5011517;28;20022;-86
2023/12/23 04:39:40;;;;;;;3.15;1.27;;;25.30;58.70;;;;;;5009340;28;20032;-89
2023/12/23 04:42:09;;;;;;;2.55;0.90;;;25.40;58.80;;;;;;5012585;28;20422;-85
2023/12/23 04:44:36;;;;;;;3.67;1.40;;;25.40;58.10;;;;;;5019818;28;20022;-77
2023/12/23 04:47:04;;;;;;;4.30;1.20;;;25.40;57.50;;;;;;5010107;28;20032;-83
2023/12/23 04:49:31;;;;;;;2.60;0.90;;;25.30;57.50;;;;;;5011659;28;20053;-85
2023/12/23 04:51:59;;;;;;;2.88;1.10;;;25.40;57.70;;;;;;5012783;28;20026;-77
2023/12/23 04:54:26;;;;;;;1.83;0.98;;;25.30;57.90;;;;;;5020508;28;20389;-80
2023/12/23 04:56:53;;;;;;;1.30;0.70;;;25.30;58.10;;;;;;5012994;28;20029;-88
2023/12/23 04:59:21;;;;;;;2.47;0.80;;;25.20;58.10;;;;;;5011236;28;20033;-89
2023/12/23 05:01:48;;;;;;;2.17;0.70;;;25.20;58.60;;;;;;5013940;28;20102;-86
2023/12/23 05:04:16;;;;;;;6.10;1.08;;;25.20;58.40;;;;;;5011876;28;20034;-83
2023/12/23 05:06:43;;;;;;;2.08;0.88;;;25.20;58.00;;;;;;5022050;28;20247;-86
2023/12/23 05:09:11;;;;;;;1.30;0.70;;;25.20;58.40;;;;;;5021380;28;20065;-77
2023/12/23 05:11:38;;;;;;;1.23;0.60;;;25.20;58.70;;;;;;5002479;28;20325;-89
2023/12/23 05:14:06;;;;;;;3.78;1.00;;;25.20;58.80;;;;;;5011483;28;20481;-85
2023/12/23 05:16:34;;;;;;;3.90;0.80;;;25.30;58.70;;;;;;5006474;28;20109;-78
2023/12/23 05:19:02;;;;;;;2.75;0.88;;;25.30;58.30;;;;;;5012624;28;20018;-76
2023/12/23 05:21:29;;;;;;;1.60;0.70;;;25.40;58.00;;;;;;5012077;28;20059;-79
2023/12/23 05:23:56;;;;;;;1.95;0.90;;;25.40;58.40;;;;;;5013504;28;20025;-83
2023/12/23 05:26:25;;;;;;;2.28;0.90;;;25.30;58.80;;;;;;5020545;28;20447;-84
2023/12/23 05:28:52;;;;;;;0.95;0.60;;;25.20;58.90;;;;;;5025903;28;20086;-81
2023/12/23 05:31:20;;;;;;;2.05;0.70;;;25.20;59.40;;;;;;5015784;28;20473;-82
2023/12/23 05:33:51;;;;;;;2.25;0.70;;;25.20;59.40;;;;;;5017249;28;20065;-75
2023/12/23 05:36:19;;;;;;;3.28;0.73;;;25.20;59.00;;;;;;5018316;28;20030;-85
2023/12/23 05:38:46;;;;;;;2.78;0.73;;;25.10;59.40;;;;;;5005278;28;20109;-78
2023/12/23 05:41:14;;;;;;;4.38;0.75;;;25.10;59.30;;;;;;5001417;28;20393;-85
2023/12/23 05:43:41;;;;;;;3.42;1.02;;;25.20;59.50;;;;;;5022419;28;20021;-78
2023/12/23 05:46:09;;;;;;;2.65;0.90;;;25.20;59.80;;;;;;5007783;28;20032;-76
2023/12/23 05:48:36;;;;;;;1.33;0.90;;;25.20;60.10;;;;;;5018654;28;20105;-76
2023/12/23 05:51:07;;;;;;;3.47;0.90;;;25.30;60.00;;;;;;5015264;28;20482;-80
2023/12/23 05:53:34;;;;;;;2.90;1.02;;;25.30;60.00;;;;;;5000265;28;20035;-77
2023/12/23 05:56:05;;;;;;;2.38;0.80;;;25.40;60.20;;;;;;5022620;28;20052;-83
2023/12/23 05:58:32;;;;;;;2.63;0.93;;;25.50;59.80;;;;;;5018897;28;20105;-75
2023/12/23 06:01:00;;;;;;;2.05;0.80;;;25.50;60.10;;;;;;5012086;28;20045;-76
2023/12/23 06:03:27;;;;;;;1.60;0.60;;;25.50;59.70;;;;;;5017513;28;20056;-77
2023/12/23 06:05:55;;;;;;;5.15;1.05;;;25.40;59.80;;;;;;5017276;28;20116;-78
2023/12/23 06:08:22;;;;;;;3.58;1.10;;;25.30;60.20;;;;;;5014393;28;20031;-87
2023/12/23 06:10:50;;;;;;;3.15;0.95;;;25.20;59.90;;;;;;4999735;28;20065;-75
2023/12/23 06:13:17;;;;;;;4.32;1.00;;;25.10;60.60;;;;;;5021558;28;20022;-83
2023/12/23 06:15:44;;;;;;;2.63;0.70;;;25.00;60.20;;;;;;5032502;28;20499;-78
2023/12/23 06:18:17;;;;;;;2.83;1.00;;;24.90;60.80;;;;;;5023234;28;20474;-85
2023/12/23 06:20:44;;;;;;;6.32;1.17;;;25.00;61.10;;;;;;5028249;28;20043;-76
2023/12/23 06:23:12;;;;;;;4.07;0.90;;;25.00;61.40;;;;;;5026375;28;20108;-84
2023/12/23 06:25:39;;;;;;;4.03;0.98;;;24.90;61.40;;;;;;5018033;28;20033;-77
2023/12/23 06:28:07;;;;;;;5.13;1.08;;;24.90;61.70;;;;;;5021536;28;20027;-78
2023/12/23 06:30:34;;;;;;;4.53;0.90;;;24.90;61.90;;;;;;5025338;28;20037;-80
2023/12/23 06:33:02;;;;;;;5.13;1.63;;;24.80;62.00;;;;;;5026659;28;20068;-77
2023/12/23 06:35:30;;;;;;;3.92;0.80;;;24.70;62.20;;;;;;5022038;28;20036;-80
2023/12/23 06:37:57;;;;;;;5.93;1.25;;;24.60;62.30;;;;;;5021496;28;20030;-78
2023/12/23 06:40:25;;;;;;;3.60;1.10;;;24.60;62.60;;;;;;5014761;28;20452;-77
2023/12/23 06:42:52;;;;;;;6.68;1.33;;;24.50;62.70;;;;;;5011726;28;20026;-85
2023/12/23 06:45:21;;;;;;;3.92;1.30;;;24.40;63.00;;;;;;5014528;28;20037;-85
2023/12/23 06:47:48;;;;;;;4.68;0.98;;;24.30;63.20;;;;;;5013240;28;20018;-77
2023/12/23 06:50:16;;;;;;;7.70;0.90;;;24.30;63.30;;;;;;5015305;28;20032;-89
2023/12/23 06:52:43;;;;;;;4.55;1.10;;;24.30;63.50;;;;;;5014820;28;20022;-78
2023/12/23 06:55:11;;;;;;;4.47;0.98;;;24.20;63.80;;;;;;5013670;28;20049;-77
2023/12/23 06:57:39;;;;;;;3.35;0.80;;;24.20;64.00;;;;;;5024759;28;20032;-85
2023/12/23 07:00:08;;;;;;;5.40;1.17;;;24.10;64.40;;;;;;5020500;28;20489;-87
2023/12/23 07:02:36;;;;;;;5.65;1.00;;;24.00;64.50;;;;;;5017822;28;20163;-76
2023/12/23 07:05:04;;;;;;;5.65;0.93;;;24.00;64.50;;;;;;5014344;28;20140;-88
2023/12/23 07:07:32;;;;;;;2.38;0.77;;;24.00;64.50;;;;;;4997170;28;20119;-82
2023/12/23 07:10:01;;;;;;;3.97;1.00;;;23.90;64.60;;;;;;5014032;28;20493;-83
2023/12/23 07:12:29;;;;;;;4.43;1.10;;;23.90;64.70;;;;;;5005091;28;20183;-84
2023/12/23 07:14:56;;;;;;;5.30;1.10;;;23.90;64.80;;;;;;5011633;28;20153;-79
2023/12/23 07:17:24;;;;;;;5.63;1.23;;;23.90;64.80;;;;;;5013539;28;20026;-86
2023/12/23 07:19:51;;;;;;;5.22;1.30;;;23.80;65.00;;;;;;5013770;28;20111;-79
2023/12/23 07:22:18;;;;;;;4.25;0.95;;;23.80;65.10;;;;;;5014620;28;20033;-85
2023/12/23 07:24:46;;;;;;;5.63;1.20;;;23.80;65.30;;;;;;5023670;28;20124;-77
2023/12/23 07:27:13;;;;;;;3.33;1.17;;;23.80;65.40;;;;;;5013518;28;20553;-78
2023/12/23 07:29:41;;;;;;;4.25;1.02;;;23.80;65.50;;;;;;5011366;28;20022;-87
2023/12/23 07:32:09;;;;;;;2.90;1.20;;;23.80;65.80;;;;;;5012607;28;20112;-79
2023/12/23 07:34:36;;;;;;;3.50;1.08;;;23.70;65.80;;;;;;5023896;28;20064;-78
2023/12/23 07:37:03;;;;;;;4.88;1.13;;;23.70;65.90;;;;;;5025199;28;20112;-78
2023/12/23 07:39:31;;;;;;;4.55;1.10;;;23.70;66.10;;;;;;5009677;28;20025;-78
2023/12/23 07:41:58;;;;;;;5.05;1.30;;;23.60;66.10;;;;;;5020524;28;20392;-87
2023/12/23 07:44:26;;;;;;;5.45;1.40;;;23.60;66.30;;;;;;5025128;28;20025;-77
2023/12/23 07:46:53;;;;;;;5.38;1.50;;;23.60;66.30;;;;;;5019949;28;20026;-79
2023/12/23 07:49:21;;;;;;;5.03;1.20;;;23.60;66.20;;;;;;5016238;28;20113;-79
2023/12/23 07:51:48;;;;;;;4.47;1.48;;;23.50;66.30;;;;;;5012908;28;20538;-80
2023/12/23 07:54:15;;;;;;;4.15;1.38;;;23.50;66.10;;;;;;5013706;28;20382;-83
2023/12/23 07:56:43;;;;;;;4.13;1.40;;;23.50;66.20;;;;;;5014981;28;20469;-85
2023/12/23 07:59:10;;;;;;;8.68;2.03;;;23.50;66.30;;;;;;5014072;28;20049;-79
2023/12/23 08:01:47;;;;;;;3.55;1.65;;;23.40;66.60;;;;;;5007975;28;20030;-88
2023/12/23 08:04:15;;;;;;;5.22;1.65;;;23.40;66.80;;;;;;5017147;28;20484;-79
2023/12/23 08:06:43;;;;;;;4.85;1.70;;;23.40;66.70;;;;;;5019400;28;20050;-86
2023/12/23 08:09:10;;;;;;;7.05;2.30;;;23.40;66.80;;;;;;5021873;28;20037;-80
2023/12/23 08:11:38;;;;;;;5.15;1.30;;;23.30;66.90;;;;;;5012907;28;20080;-82
2023/12/23 08:14:05;;;;;;;2.25;0.90;;;23.30;67.10;;;;;;5011976;28;20113;-83
2023/12/23 08:16:33;;;;;;;6.28;1.88;;;23.30;66.90;;;;;;5022465;28;20037;-90
2023/12/23 08:19:00;;;;;;;6.32;1.50;;;23.30;67.00;;;;;;5021758;28;20057;-80
2023/12/23 08:21:27;;;;;;;4.53;1.25;;;23.30;67.00;;;;;;5011688;28;20033;-79
2023/12/23 08:23:55;;;;;;;6.90;1.35;;;23.20;67.10;;;;;;5026651;28;20477;-80
2023/12/23 08:26:22;;;;;;;4.57;1.50;;;23.20;67.10;;;;;;5010435;28;20034;-87
2023/12/23 08:28:50;;;;;;;7.35;1.83;;;23.20;66.90;;;;;;5012562;28;20013;-85
2023/12/23 08:31:17;;;;;;;4.30;1.30;;;23.10;67.10;;;;;;5016768;28;20104;-85
2023/12/23 08:33:44;;;;;;;5.97;1.50;;;23.10;67.30;;;;;;5024202;28;20025;-81
2023/12/23 08:36:12;;;;;;;4.85;1.35;;;23.00;67.30;;;;;;5013207;28;20487;-79
2023/12/23 08:38:39;;;;;;;6.05;1.65;;;23.00;67.40;;;;;;5020310;28;20021;-88
2023/12/23 08:41:07;;;;;;;5.43;1.50;;;23.00;67.60;;;;;;5025255;28;20435;-81
2023/12/23 08:43:34;;;;;;;4.93;1.45;;;23.00;67.70;;;;;;5013880;28;20120;-82
2023/12/23 08:46:05;;;;;;;5.63;1.27;;;23.00;68.00;;;;;;5030613;28;20082;-79
2023/12/23 08:48:32;;;;;;;5.85;1.63;;;22.90;68.00;;;;;;5019109;28;20026;-82
2023/12/23 08:50:59;;;;;;;5.13;1.40;;;22.90;68.00;;;;;;5020674;28;20653;-82
2023/12/23 08:53:28;;;;;;;5.32;1.40;;;22.90;68.00;;;;;;5015211;28;20018;-79
2023/12/23 08:55:55;;;;;;;6.28;1.50;;;22.80;68.00;;;;;;5007012;28;20045;-82
2023/12/23 08:58:24;;;;;;;5.40;1.80;;;22.80;68.20;;;;;;5007959;28;20018;-79
2023/12/23 09:00:52;;;;;;;3.45;1.23;;;22.80;68.50;;;;;;5024441;28;20041;-79
2023/12/23 09:03:19;;;;;;;4.13;1.77;;;22.80;68.50;;;;;;5025143;28;20053;-87
2023/12/23 09:05:46;;;;;;;3.60;1.35;;;22.80;68.70;;;;;;5010366;28;20050;-86
2023/12/23 09:08:14;;;;;;;7.05;1.65;;;22.80;68.50;;;;;;5014475;28;20080;-78
2023/12/23 09:10:42;;;;;;;5.18;1.40;;;22.80;68.70;;;;;;5014681;28;20037;-79
2023/12/23 09:13:09;;;;;;;8.23;1.60;;;22.80;68.80;;;;;;5017591;28;20061;-82
2023/12/23 09:15:38;;;;;;;7.05;1.40;;;22.80;68.90;;;;;;5015824;28;20041;-84
2023/12/23 09:18:05;;;;;;;6.10;1.65;;;22.70;69.00;;;;;;5014571;28;20480;-78
2023/12/23 09:20:32;;;;;;;4.80;1.42;;;22.70;69.10;;;;;;5012055;28;20070;-79
2023/12/23 09:23:00;;;;;;;5.28;1.40;;;22.70;69.20;;;;;;5010614;28;20037;-88
2023/12/23 09:25:27;;;;;;;5.50;1.45;;;22.80;68.80;;;;;;5014645;28;20030;-80
2023/12/23 09:27:55;;;;;;;5.78;1.40;;;22.70;69.00;;;;;;5018578;28;20421;-82
2023/12/23 09:30:22;;;;;;;5.45;1.40;;;22.80;68.90;;;;;;5019018;28;20560;-85
2023/12/23 09:32:50;;;;;;;5.82;1.40;;;22.70;68.90;;;;;;5012381;28;20101;-79
2023/12/23 09:35:17;;;;;;;6.07;1.55;;;22.70;68.90;;;;;;5020531;28;20307;-83
2023/12/23 09:37:45;;;;;;;4.35;1.45;;;22.60;69.00;;;;;;5016233;28;20026;-85
2023/12/23 09:40:13;;;;;;;5.80;1.55;;;22.50;69.40;;;;;;4996123;28;20044;-88
2023/12/23 09:42:42;;;;;;;6.30;1.33;;;22.40;69.60;;;;;;5010633;28;20029;-78
2023/12/23 09:45:14;;;;;;;4.25;1.10;;;22.40;69.70;;;;;;5007693;28;20472;-82
2023/12/23 09:47:42;;;;;;;5.35;1.30;;;22.40;69.90;;;;;;5014519;28;20029;-78
2023/12/23 09:50:10;;;;;;;7.72;1.60;;;22.30;69.90;;;;;;5026907;28;20036;-88
2023/12/23 09:52:37;;;;;;;5.00;2.35;;;22.40;70.00;;;;;;5013750;28;20501;-79
2023/12/23 09:55:09;;;;;;;6.00;1.88;;;22.30;70.10;;;;;;5015067;28;20444;-79
2023/12/23 09:57:37;;;;;;;9.25;2.15;;;22.30;70.20;;;;;;5014945;28;20037;-84
2023/12/23 10:00:05;;;;;;;5.72;1.90;;;22.30;70.20;;;;;;5002446;28;20043;-79
2023/12/23 10:02:32;;;;;;;8.30;2.30;;;22.30;70.30;;;;;;5009320;28;20097;-78
2023/12/23 10:04:59;;;;;;;7.82;1.58;;;22.30;70.20;;;;;;5015363;28;20815;-84
2023/12/23 10:07:27;;;;;;;4.80;1.80;;;22.30;70.30;;;;;;5015465;28;20030;-78
2023/12/23 10:09:54;;;;;;;3.22;1.20;;;22.30;70.30;;;;;;5012392;28;20085;-78
2023/12/23 10:12:22;;;;;;;4.35;1.42;;;22.30;70.50;;;;;;5009140;28;20057;-83
2023/12/23 10:14:50;;;;;;;4.93;1.15;;;22.30;70.40;;;;;;5012244;28;20048;-84
2023/12/23 10:17:18;;;;;;;6.05;1.40;;;22.30;70.40;;;;;;5021648;28;20540;-78
2023/12/23 10:19:48;;;;;;;5.85;1.60;;;22.30;70.60;;;;;;5019853;28;20029;-81
2023/12/23 10:22:18;;;;;;;5.10;1.55;;;22.30;70.70;;;;;;5015651;28;20457;-84
2023/12/23 10:24:46;;;;;;;5.40;2.30;;;22.30;70.60;;;;;;5014086;28;21101;-83
2023/12/23 10:27:19;;;;;;;5.78;2.28;;;22.30;70.70;;;;;;5007965;28;20045;-79
2023/12/23 10:29:53;;;;;;;6.70;2.60;;;22.30;70.70;;;;;;5022967;28;20030;-81
2023/12/23 10:32:27;;;;;;;4.47;2.65;;;22.30;70.80;;;;;;5009749;28;20492;-79
2023/12/23 10:35:02;;;;;;;6.10;2.57;;;22.30;70.80;;;;;;5012514;28;20512;-78
2023/12/23 10:37:30;;;;;;;4.03;1.98;;;22.30;70.80;;;;;;5011921;28;20493;-78
2023/12/23 10:40:07;;;;;;;6.63;2.03;;;22.30;70.80;;;;;;5010865;28;20030;-78
2023/12/23 10:42:37;;;;;;;6.18;1.92;;;22.30;70.90;;;;;;5030107;28;20436;-77
2023/12/23 10:45:07;;;;;;;5.55;1.27;;;22.30;71.00;;;;;;5015583;28;20139;-77
2023/12/23 10:47:35;;;;;;;2.72;1.00;;;22.30;71.00;;;;;;5014229;28;20030;-82
2023/12/23 10:50:03;;;;;;;7.57;1.50;;;22.30;71.00;;;;;;5020420;28;20473;-76
2023/12/23 10:52:31;;;;;;;5.07;1.42;;;22.30;71.20;;;;;;5016776;28;20037;-78
2023/12/23 10:55:02;;;;;;;5.75;1.17;;;22.30;71.00;;;;;;5013742;28;21076;-78
2023/12/23 10:57:32;;;;;;;5.60;1.17;;;22.30;71.10;;;;;;5022018;28;20037;-77
2023/12/23 11:00:00;;;;;;;5.88;1.42;;;22.30;71.00;;;;;;5010775;28;20496;-76
2023/12/23 11:02:34;;;;;;;5.35;1.25;;;22.30;71.30;;;;;;5023840;28;20044;-78
2023/12/23 11:05:06;;;;;;;3.15;1.05;;;22.30;71.60;;;;;;5017316;28;20026;-77
2023/12/23 11:07:47;;;;;;;5.78;1.30;;;22.30;71.20;;;;;;5011506;28;20030;-79
2023/12/23 11:10:16;;;;;;;6.80;1.40;;;22.20;71.40;;;;;;5014126;28;20033;-78
2023/12/23 11:12:43;;;;;;;3.92;1.38;;;22.20;71.60;;;;;;5014294;28;20045;-81
2023/12/23 11:15:12;;;;;;;3.55;1.20;;;22.20;71.70;;;;;;5017221;28;20026;-78
2023/12/23 11:17:46;;;;;;;5.28;1.25;;;22.20;71.60;;;;;;5014247;28;20543;-80
2023/12/23 11:20:44;;;;;;;7.22;1.50;;;22.20;71.80;;;;;;5008106;28;20038;-79
2023/12/23 11:23:33;;;;;;;5.13;1.30;;;22.20;71.90;;;;;;5009950;28;20113;-81
2023/12/23 11:26:02;;;;;;;3.35;1.10;;;22.30;71.70;;;;;;5014054;28;20109;-81
2023/12/23 11:28:38;;;;;;;3.63;1.05;;;22.20;71.80;;;;;;5024078;28;20033;-79
2023/12/23 11:31:05;;;;;;;3.92;1.30;;;22.20;71.90;;;;;;5012200;28;20026;-80
2023/12/23 11:33:37;;;;;;;3.88;1.30;;;22.20;71.90;;;;;;5021062;28;20029;-87
2023/12/23 11:36:05;;;;;;;4.78;1.70;;;22.20;71.90;;;;;;5008392;28;20022;-81
2023/12/23 11:38:50;;;;;;;4.45;0.95;;;22.20;72.00;;;;;;5013887;28;20021;-84
2023/12/23 11:41:19;;;;;;;4.43;1.33;;;22.20;72.10;;;;;;5013281;28;20552;-77
2023/12/23 11:43:47;;;;;;;2.95;1.00;;;22.20;72.10;;;;;;5014061;28;20263;-80
2023/12/23 11:46:17;;;;;;;7.45;1.45;;;22.20;72.10;;;;;;5018176;28;20025;-79
2023/12/23 11:48:44;;;;;;;5.05;1.20;;;22.20;72.10;;;;;;5020448;28;20049;-83
2023/12/23 11:51:12;;;;;;;5.30;1.10;;;22.20;72.20;;;;;;5013744;28;20114;-79
2023/12/23 11:53:41;;;;;;;4.97;1.00;;;22.20;72.40;;;;;;5021291;28;20022;-82
2023/12/23 11:56:08;;;;;;;7.30;1.20;;;22.20;72.40;;;;;;5012567;28;20026;-82
2023/12/23 11:58:36;;;;;;;3.70;1.00;;;22.20;72.30;;;;;;5013236;28;20389;-83
2023/12/23 12:01:04;;;;;;;4.70;1.10;;;22.20;72.40;;;;;;5013877;28;20477;-82
2023/12/23 12:03:31;;;;;;;3.78;0.90;;;22.10;72.30;;;;;;5005130;28;20018;-83
2023/12/23 12:05:59;;;;;;;7.38;1.35;;;22.20;72.30;;;;;;5021153;28;20046;-84
2023/12/23 12:08:27;;;;;;;7.75;1.48;;;22.20;72.30;;;;;;5023549;28;20037;-82
2023/12/23 12:10:58;;;;;;;3.83;1.00;;;22.10;72.40;;;;;;5019904;28;20025;-81
2023/12/23 12:13:38;;;;;;;4.30;0.88;;;22.10;72.40;;;;;;5008969;28;20042;-78
2023/12/23 12:16:06;;;;;;;4.13;1.00;;;22.10;72.50;;;;;;5016123;28;20025;-86
2023/12/23 12:18:34;;;;;;;3.30;1.00;;;22.20;72.80;;;;;;5021951;28;20025;-79
2023/12/23 12:21:01;;;;;;;10.00;1.10;;;22.20;72.60;;;;;;5006211;28;20038;-83
2023/12/23 12:23:29;;;;;;;6.15;1.23;;;22.10;72.50;;;;;;5011940;28;20018;-78
2023/12/23 12:25:57;;;;;;;2.63;0.85;;;22.10;72.60;;;;;;5014453;28;20032;-86
2023/12/23 12:28:25;;;;;;;4.40;1.05;;;22.10;72.60;;;;;;5021650;28;20040;-79
2023/12/23 12:30:52;;;;;;;5.53;1.00;;;22.10;72.70;;;;;;5013748;28;20113;-82
2023/12/23 12:33:20;;;;;;;9.02;1.25;;;22.10;72.60;;;;;;5010449;28;20081;-78
2023/12/23 12:35:47;;;;;;;4.75;1.10;;;22.10;72.70;;;;;;5017797;28;20050;-84
2023/12/23 12:38:15;;;;;;;7.88;1.30;;;22.10;72.80;;;;;;5027878;28;20416;-77
2023/12/23 12:40:42;;;;;;;4.30;1.30;;;22.10;72.60;;;;;;5014119;28;20088;-86
2023/12/23 12:43:10;;;;;;;3.80;1.02;;;22.10;72.70;;;;;;5021727;28;20075;-87
2023/12/23 12:45:40;;;;;;;4.10;1.23;;;22.10;72.70;;;;;;5010905;28;20541;-77
2023/12/23 12:48:11;;;;;;;4.28;1.10;;;22.10;72.60;;;;;;5026533;28;20469;-80
2023/12/23 12:50:45;;;;;;;6.70;0.98;;;22.10;72.80;;;;;;5003813;28;20033;-87
2023/12/23 12:53:15;;;;;;;5.13;1.20;;;22.20;72.70;;;;;;5021230;28;20026;-80
2023/12/23 12:55:43;;;;;;;1.90;0.90;;;22.20;72.60;;;;;;5014616;28;20029;-84